sensor_id;sensor_type;location;lat;lon;timestamp;P1;durP1;ratioP1;P2;durP2;ratioP2
18302;SDS011;9277;37.980;23.748;2023-08-17T00:02:04;10.93;;;7.43;;
18302;SDS011;9277;37.980;23.748;2023-08-17T00:04:32;10.55;;;6.68;;
18302;SDS011;9277;37.980;23.748;2023-08-17T00:06:59;8.77;;;6.63;;
18302;SDS011;9277;37.980;23.748;2023-08-17T00:09:26;10.80;;;7.28;;
18302;SDS011;9277;37.980;23.748;2023-08-17T00:11:53;14.30;;;7.75;;
18302;SDS011;9277;37.980;23.748;2023-08-17T00:14:19;13.65;;;7.25;;
18302;SDS011;9277;37.980;23.748;2023-08-17T00:16:46;14.38;;;7.55;;
18302;SDS011;9277;37.980;23.748;2023-08-17T00:19:13;10.75;;;6.75;;
18302;SDS011;9277;37.980;23.748;2023-08-17T00:21:41;13.05;;;6.78;;
18302;SDS011;9277;37.980;23.748;2023-08-17T00:24:08;14.63;;;8.00;;
18302;SDS011;9277;37.980;23.748;2023-08-17T00:26:35;12.15;;;6.88;;
18302;SDS011;9277;37.980;23.748;2023-08-17T00:29:02;10.77;;;6.93;;
18302;SDS011;9277;37.980;23.748;2023-08-17T00:31:29;10.07;;;6.88;;
18302;SDS011;9277;37.980;23.748;2023-08-17T00:33:55;12.20;;;7.15;;
18302;SDS011;9277;37.980;23.748;2023-08-17T00:36:22;11.88;;;6.90;;
18302;SDS011;9277;37.980;23.748;2023-08-17T00:38:51;11.85;;;7.45;;
18302;SDS011;9277;37.980;23.748;2023-08-17T00:41:17;11.73;;;7.78;;
18302;SDS011;9277;37.980;23.748;2023-08-17T00:43:44;10.88;;;6.95;;
18302;SDS011;9277;37.980;23.748;2023-08-17T00:46:11;9.63;;;7.10;;
18302;SDS011;9277;37.980;23.748;2023-08-17T00:48:39;12.80;;;7.38;;
18302;SDS011;9277;37.980;23.748;2023-08-17T00:51:06;13.13;;;8.13;;
18302;SDS011;9277;37.980;23.748;2023-08-17T00:53:33;13.38;;;7.40;;
18302;SDS011;9277;37.980;23.748;2023-08-17T00:56:01;10.50;;;7.45;;
18302;SDS011;9277;37.980;23.748;2023-08-17T00:58:29;10.30;;;6.90;;
18302;SDS011;9277;37.980;23.748;2023-08-17T01:00:56;10.73;;;7.50;;
18302;SDS011;9277;37.980;23.748;2023-08-17T01:03:23;10.32;;;7.10;;
18302;SDS011;9277;37.980;23.748;2023-08-17T01:05:50;10.27;;;6.78;;
18302;SDS011;9277;37.980;23.748;2023-08-17T01:08:17;13.30;;;7.35;;
18302;SDS011;9277;37.980;23.748;2023-08-17T01:10:46;9.48;;;6.60;;
18302;SDS011;9277;37.980;23.748;2023-08-17T01:13:17;11.20;;;7.45;;
18302;SDS011;9277;37.980;23.748;2023-08-17T01:15:45;8.98;;;6.88;;
18302;SDS011;9277;37.980;23.748;2023-08-17T01:18:16;10.82;;;7.55;;
18302;SDS011;9277;37.980;23.748;2023-08-17T01:20:47;12.73;;;7.10;;
18302;SDS011;9277;37.980;23.748;2023-08-17T01:23:16;10.50;;;7.55;;
18302;SDS011;9277;37.980;23.748;2023-08-17T01:25:43;12.13;;;7.22;;
18302;SDS011;9277;37.980;23.748;2023-08-17T01:28:09;11.63;;;7.25;;
18302;SDS011;9277;37.980;23.748;2023-08-17T01:30:37;10.90;;;7.22;;
18302;SDS011;9277;37.980;23.748;2023-08-17T01:33:06;9.73;;;6.72;;
18302;SDS011;9277;37.980;23.748;2023-08-17T01:35:34;10.93;;;7.50;;
18302;SDS011;9277;37.980;23.748;2023-08-17T01:38:04;8.98;;;6.55;;
18302;SDS011;9277;37.980;23.748;2023-08-17T01:40:35;10.50;;;6.78;;
18302;SDS011;9277;37.980;23.748;2023-08-17T01:43:01;9.13;;;6.68;;
18302;SDS011;9277;37.980;23.748;2023-08-17T01:45:28;13.00;;;7.22;;
18302;SDS011;9277;37.980;23.748;2023-08-17T01:47:55;10.40;;;7.30;;
18302;SDS011;9277;37.980;23.748;2023-08-17T01:50:22;9.73;;;6.72;;
18302;SDS011;9277;37.980;23.748;2023-08-17T01:52:49;12.43;;;6.75;;
18302;SDS011;9277;37.980;23.748;2023-08-17T01:55:16;9.02;;;6.43;;
18302;SDS011;9277;37.980;23.748;2023-08-17T01:57:44;11.63;;;6.82;;
18302;SDS011;9277;37.980;23.748;2023-08-17T02:00:12;7.80;;;6.03;;
18302;SDS011;9277;37.980;23.748;2023-08-17T02:02:38;8.45;;;6.43;;
18302;SDS011;9277;37.980;23.748;2023-08-17T02:05:06;11.18;;;6.68;;
18302;SDS011;9277;37.980;23.748;2023-08-17T02:07:32;10.07;;;6.50;;
18302;SDS011;9277;37.980;23.748;2023-08-17T02:09:59;11.07;;;6.45;;
18302;SDS011;9277;37.980;23.748;2023-08-17T02:12:26;10.57;;;6.80;;
18302;SDS011;9277;37.980;23.748;2023-08-17T02:14:54;9.43;;;6.53;;
18302;SDS011;9277;37.980;23.748;2023-08-17T02:17:21;10.23;;;6.68;;
18302;SDS011;9277;37.980;23.748;2023-08-17T02:19:48;8.95;;;6.68;;
18302;SDS011;9277;37.980;23.748;2023-08-17T02:22:15;12.95;;;6.60;;
18302;SDS011;9277;37.980;23.748;2023-08-17T02:24:42;8.57;;;6.80;;
18302;SDS011;9277;37.980;23.748;2023-08-17T02:27:09;9.50;;;6.22;;
18302;SDS011;9277;37.980;23.748;2023-08-17T02:29:36;8.52;;;6.38;;
18302;SDS011;9277;37.980;23.748;2023-08-17T02:32:04;9.13;;;6.13;;
18302;SDS011;9277;37.980;23.748;2023-08-17T02:34:31;12.70;;;6.72;;
18302;SDS011;9277;37.980;23.748;2023-08-17T02:36:58;9.48;;;6.30;;
18302;SDS011;9277;37.980;23.748;2023-08-17T02:39:25;10.20;;;6.32;;
18302;SDS011;9277;37.980;23.748;2023-08-17T02:41:52;9.68;;;6.35;;
18302;SDS011;9277;37.980;23.748;2023-08-17T02:44:20;10.27;;;5.95;;
18302;SDS011;9277;37.980;23.748;2023-08-17T02:46:47;9.27;;;6.47;;
18302;SDS011;9277;37.980;23.748;2023-08-17T02:49:15;11.13;;;6.25;;
18302;SDS011;9277;37.980;23.748;2023-08-17T02:51:41;7.85;;;5.85;;
18302;SDS011;9277;37.980;23.748;2023-08-17T02:54:08;11.23;;;6.88;;
18302;SDS011;9277;37.980;23.748;2023-08-17T02:56:35;11.85;;;6.88;;
18302;SDS011;9277;37.980;23.748;2023-08-17T02:59:02;7.75;;;6.22;;
18302;SDS011;9277;37.980;23.748;2023-08-17T03:01:29;9.45;;;6.05;;
18302;SDS011;9277;37.980;23.748;2023-08-17T03:03:57;10.85;;;5.93;;
18302;SDS011;9277;37.980;23.748;2023-08-17T03:06:25;9.55;;;6.72;;
18302;SDS011;9277;37.980;23.748;2023-08-17T03:08:52;8.45;;;6.00;;
18302;SDS011;9277;37.980;23.748;2023-08-17T03:11:19;7.43;;;5.70;;
18302;SDS011;9277;37.980;23.748;2023-08-17T03:13:46;7.80;;;5.82;;
18302;SDS011;9277;37.980;23.748;2023-08-17T03:16:13;8.13;;;5.90;;
18302;SDS011;9277;37.980;23.748;2023-08-17T03:18:40;9.48;;;6.22;;
18302;SDS011;9277;37.980;23.748;2023-08-17T03:21:08;12.32;;;6.13;;
18302;SDS011;9277;37.980;23.748;2023-08-17T03:23:36;8.63;;;5.93;;
18302;SDS011;9277;37.980;23.748;2023-08-17T03:26:03;10.95;;;6.47;;
18302;SDS011;9277;37.980;23.748;2023-08-17T03:28:30;7.72;;;6.15;;
18302;SDS011;9277;37.980;23.748;2023-08-17T03:30:56;9.50;;;6.07;;
18302;SDS011;9277;37.980;23.748;2023-08-17T03:33:23;8.57;;;6.22;;
18302;SDS011;9277;37.980;23.748;2023-08-17T03:35:50;11.48;;;6.97;;
18302;SDS011;9277;37.980;23.748;2023-08-17T03:38:17;10.43;;;5.65;;
18302;SDS011;9277;37.980;23.748;2023-08-17T03:40:45;12.18;;;6.80;;
18302;SDS011;9277;37.980;23.748;2023-08-17T03:43:12;7.90;;;5.80;;
18302;SDS011;9277;37.980;23.748;2023-08-17T03:45:40;10.07;;;6.32;;
18302;SDS011;9277;37.980;23.748;2023-08-17T03:48:07;7.97;;;5.82;;
18302;SDS011;9277;37.980;23.748;2023-08-17T03:50:34;8.50;;;6.25;;
18302;SDS011;9277;37.980;23.748;2023-08-17T03:53:01;7.93;;;5.97;;
18302;SDS011;9277;37.980;23.748;2023-08-17T03:55:28;7.45;;;5.60;;
18302;SDS011;9277;37.980;23.748;2023-08-17T03:57:56;8.25;;;5.50;;
18302;SDS011;9277;37.980;23.748;2023-08-17T04:00:22;10.02;;;6.38;;
18302;SDS011;9277;37.980;23.748;2023-08-17T04:02:49;10.60;;;6.22;;
18302;SDS011;9277;37.980;23.748;2023-08-17T04:05:16;10.98;;;5.78;;
18302;SDS011;9277;37.980;23.748;2023-08-17T04:07:43;9.38;;;5.75;;
18302;SDS011;9277;37.980;23.748;2023-08-17T04:10:10;10.43;;;5.45;;
18302;SDS011;9277;37.980;23.748;2023-08-17T04:12:37;14.98;;;5.80;;
18302;SDS011;9277;37.980;23.748;2023-08-17T04:15:05;10.95;;;6.05;;
18302;SDS011;9277;37.980;23.748;2023-08-17T04:17:32;8.60;;;5.35;;
18302;SDS011;9277;37.980;23.748;2023-08-17T04:19:59;11.82;;;5.85;;
18302;SDS011;9277;37.980;23.748;2023-08-17T04:22:26;9.82;;;5.70;;
18302;SDS011;9277;37.980;23.748;2023-08-17T04:24:52;6.43;;;5.28;;
18302;SDS011;9277;37.980;23.748;2023-08-17T04:27:19;7.95;;;5.57;;
18302;SDS011;9277;37.980;23.748;2023-08-17T04:29:46;14.23;;;5.13;;
18302;SDS011;9277;37.980;23.748;2023-08-17T04:32:17;9.25;;;5.40;;
18302;SDS011;9277;37.980;23.748;2023-08-17T04:34:44;9.85;;;5.60;;
18302;SDS011;9277;37.980;23.748;2023-08-17T04:37:11;7.20;;;5.40;;
18302;SDS011;9277;37.980;23.748;2023-08-17T04:39:38;8.75;;;5.32;;
18302;SDS011;9277;37.980;23.748;2023-08-17T04:42:06;6.03;;;5.43;;
18302;SDS011;9277;37.980;23.748;2023-08-17T04:44:32;7.72;;;5.32;;
18302;SDS011;9277;37.980;23.748;2023-08-17T04:46:59;16.75;;;5.90;;
18302;SDS011;9277;37.980;23.748;2023-08-17T04:49:28;8.48;;;5.38;;
18302;SDS011;9277;37.980;23.748;2023-08-17T04:51:54;6.25;;;5.05;;
18302;SDS011;9277;37.980;23.748;2023-08-17T04:54:21;9.75;;;5.43;;
18302;SDS011;9277;37.980;23.748;2023-08-17T04:56:48;9.25;;;5.60;;
18302;SDS011;9277;37.980;23.748;2023-08-17T04:59:15;8.93;;;5.45;;
18302;SDS011;9277;37.980;23.748;2023-08-17T05:01:42;9.52;;;5.30;;
18302;SDS011;9277;37.980;23.748;2023-08-17T05:04:08;8.27;;;5.30;;
18302;SDS011;9277;37.980;23.748;2023-08-17T05:06:37;9.82;;;5.45;;
18302;SDS011;9277;37.980;23.748;2023-08-17T05:09:04;9.13;;;5.68;;
18302;SDS011;9277;37.980;23.748;2023-08-17T05:11:30;8.57;;;5.60;;
18302;SDS011;9277;37.980;23.748;2023-08-17T05:13:57;7.05;;;5.38;;
18302;SDS011;9277;37.980;23.748;2023-08-17T05:16:24;10.73;;;5.53;;
18302;SDS011;9277;37.980;23.748;2023-08-17T05:18:51;8.80;;;5.65;;
18302;SDS011;9277;37.980;23.748;2023-08-17T05:21:18;9.32;;;5.68;;
18302;SDS011;9277;37.980;23.748;2023-08-17T05:23:46;12.07;;;5.78;;
18302;SDS011;9277;37.980;23.748;2023-08-17T05:26:13;7.03;;;5.10;;
18302;SDS011;9277;37.980;23.748;2023-08-17T05:28:39;6.35;;;5.30;;
18302;SDS011;9277;37.980;23.748;2023-08-17T05:31:08;11.90;;;5.90;;
18302;SDS011;9277;37.980;23.748;2023-08-17T05:33:35;9.27;;;5.38;;
18302;SDS011;9277;37.980;23.748;2023-08-17T05:36:01;17.45;;;5.75;;
18302;SDS011;9277;37.980;23.748;2023-08-17T05:38:28;10.02;;;5.72;;
18302;SDS011;9277;37.980;23.748;2023-08-17T05:40:57;7.65;;;5.35;;
18302;SDS011;9277;37.980;23.748;2023-08-17T05:43:24;8.77;;;5.57;;
18302;SDS011;9277;37.980;23.748;2023-08-17T05:45:51;9.85;;;5.05;;
18302;SDS011;9277;37.980;23.748;2023-08-17T05:48:18;8.93;;;5.43;;
18302;SDS011;9277;37.980;23.748;2023-08-17T05:50:45;8.75;;;5.07;;
18302;SDS011;9277;37.980;23.748;2023-08-17T05:53:12;7.60;;;4.80;;
18302;SDS011;9277;37.980;23.748;2023-08-17T05:55:39;11.65;;;5.55;;
18302;SDS011;9277;37.980;23.748;2023-08-17T05:58:07;7.03;;;4.72;;
18302;SDS011;9277;37.980;23.748;2023-08-17T06:00:34;14.75;;;5.53;;
18302;SDS011;9277;37.980;23.748;2023-08-17T06:03:01;6.28;;;4.88;;
18302;SDS011;9277;37.980;23.748;2023-08-17T06:05:28;11.55;;;5.40;;
18302;SDS011;9277;37.980;23.748;2023-08-17T06:07:55;6.10;;;5.20;;
18302;SDS011;9277;37.980;23.748;2023-08-17T06:10:22;7.60;;;5.13;;
18302;SDS011;9277;37.980;23.748;2023-08-17T06:12:50;7.47;;;5.13;;
18302;SDS011;9277;37.980;23.748;2023-08-17T06:15:19;8.38;;;5.32;;
18302;SDS011;9277;37.980;23.748;2023-08-17T06:17:46;9.23;;;5.15;;
18302;SDS011;9277;37.980;23.748;2023-08-17T06:20:15;11.57;;;4.75;;
18302;SDS011;9277;37.980;23.748;2023-08-17T06:22:42;7.97;;;5.57;;
18302;SDS011;9277;37.980;23.748;2023-08-17T06:25:09;9.85;;;5.05;;
18302;SDS011;9277;37.980;23.748;2023-08-17T06:27:36;8.50;;;5.15;;
18302;SDS011;9277;37.980;23.748;2023-08-17T06:30:03;10.55;;;6.07;;
18302;SDS011;9277;37.980;23.748;2023-08-17T06:32:31;9.73;;;5.15;;
18302;SDS011;9277;37.980;23.748;2023-08-17T06:34:58;8.23;;;5.13;;
18302;SDS011;9277;37.980;23.748;2023-08-17T06:37:24;7.57;;;4.60;;
18302;SDS011;9277;37.980;23.748;2023-08-17T06:39:51;6.63;;;5.25;;
18302;SDS011;9277;37.980;23.748;2023-08-17T06:42:18;6.82;;;4.97;;
18302;SDS011;9277;37.980;23.748;2023-08-17T06:44:45;7.43;;;5.05;;
18302;SDS011;9277;37.980;23.748;2023-08-17T06:47:12;5.57;;;4.75;;
18302;SDS011;9277;37.980;23.748;2023-08-17T06:49:40;6.53;;;5.20;;
18302;SDS011;9277;37.980;23.748;2023-08-17T06:52:07;16.70;;;5.63;;
18302;SDS011;9277;37.980;23.748;2023-08-17T06:54:34;8.13;;;4.88;;
18302;SDS011;9277;37.980;23.748;2023-08-17T06:57:01;8.45;;;4.90;;
18302;SDS011;9277;37.980;23.748;2023-08-17T06:59:27;7.38;;;4.88;;
18302;SDS011;9277;37.980;23.748;2023-08-17T07:01:54;9.25;;;5.13;;
18302;SDS011;9277;37.980;23.748;2023-08-17T07:04:21;7.28;;;4.57;;
18302;SDS011;9277;37.980;23.748;2023-08-17T07:06:49;7.43;;;4.30;;
18302;SDS011;9277;37.980;23.748;2023-08-17T07:09:16;11.02;;;5.50;;
18302;SDS011;9277;37.980;23.748;2023-08-17T07:11:45;9.73;;;4.50;;
18302;SDS011;9277;37.980;23.748;2023-08-17T07:14:12;8.20;;;4.80;;
18302;SDS011;9277;37.980;23.748;2023-08-17T07:16:39;10.18;;;4.68;;
18302;SDS011;9277;37.980;23.748;2023-08-17T07:19:06;6.10;;;4.57;;
18302;SDS011;9277;37.980;23.748;2023-08-17T07:21:33;9.93;;;4.50;;
18302;SDS011;9277;37.980;23.748;2023-08-17T07:24:08;6.53;;;4.30;;
18302;SDS011;9277;37.980;23.748;2023-08-17T07:26:37;8.60;;;4.60;;
18302;SDS011;9277;37.980;23.748;2023-08-17T07:29:04;10.57;;;4.78;;
18302;SDS011;9277;37.980;23.748;2023-08-17T07:31:31;9.75;;;5.40;;
18302;SDS011;9277;37.980;23.748;2023-08-17T07:33:58;6.80;;;4.55;;
18302;SDS011;9277;37.980;23.748;2023-08-17T07:36:25;9.63;;;5.18;;
18302;SDS011;9277;37.980;23.748;2023-08-17T07:38:52;9.32;;;4.57;;
18302;SDS011;9277;37.980;23.748;2023-08-17T07:41:20;8.35;;;5.05;;
18302;SDS011;9277;37.980;23.748;2023-08-17T07:43:47;9.82;;;5.63;;
18302;SDS011;9277;37.980;23.748;2023-08-17T07:46:14;10.30;;;5.60;;
18302;SDS011;9277;37.980;23.748;2023-08-17T07:48:41;6.35;;;4.65;;
18302;SDS011;9277;37.980;23.748;2023-08-17T07:51:07;15.13;;;5.07;;
18302;SDS011;9277;37.980;23.748;2023-08-17T07:53:34;8.95;;;4.85;;
18302;SDS011;9277;37.980;23.748;2023-08-17T07:56:01;7.55;;;4.95;;
18302;SDS011;9277;37.980;23.748;2023-08-17T07:58:29;8.00;;;4.53;;
18302;SDS011;9277;37.980;23.748;2023-08-17T08:00:56;12.32;;;4.97;;
18302;SDS011;9277;37.980;23.748;2023-08-17T08:03:23;9.63;;;5.20;;
18302;SDS011;9277;37.980;23.748;2023-08-17T08:05:49;12.90;;;5.25;;
18302;SDS011;9277;37.980;23.748;2023-08-17T08:08:16;10.65;;;4.82;;
18302;SDS011;9277;37.980;23.748;2023-08-17T08:10:45;7.55;;;4.55;;
18302;SDS011;9277;37.980;23.748;2023-08-17T08:13:12;7.25;;;4.45;;
18302;SDS011;9277;37.980;23.748;2023-08-17T08:15:40;6.63;;;4.50;;
18302;SDS011;9277;37.980;23.748;2023-08-17T08:18:07;8.02;;;4.43;;
18302;SDS011;9277;37.980;23.748;2023-08-17T08:20:34;7.75;;;4.80;;
18302;SDS011;9277;37.980;23.748;2023-08-17T08:23:01;5.03;;;3.92;;
18302;SDS011;9277;37.980;23.748;2023-08-17T08:25:28;4.68;;;4.00;;
18302;SDS011;9277;37.980;23.748;2023-08-17T08:27:55;7.35;;;3.95;;
18302;SDS011;9277;37.980;23.748;2023-08-17T08:30:22;7.28;;;3.75;;
18302;SDS011;9277;37.980;23.748;2023-08-17T08:32:50;5.72;;;3.63;;
18302;SDS011;9277;37.980;23.748;2023-08-17T08:35:17;11.65;;;3.83;;
18302;SDS011;9277;37.980;23.748;2023-08-17T08:37:43;5.00;;;4.43;;
18302;SDS011;9277;37.980;23.748;2023-08-17T08:40:11;9.60;;;3.55;;
18302;SDS011;9277;37.980;23.748;2023-08-17T08:42:38;5.10;;;3.92;;
18302;SDS011;9277;37.980;23.748;2023-08-17T08:45:05;6.88;;;3.38;;
18302;SDS011;9277;37.980;23.748;2023-08-17T08:47:32;10.93;;;4.28;;
18302;SDS011;9277;37.980;23.748;2023-08-17T08:50:02;7.30;;;4.20;;
18302;SDS011;9277;37.980;23.748;2023-08-17T08:52:32;6.43;;;4.22;;
18302;SDS011;9277;37.980;23.748;2023-08-17T08:54:59;6.65;;;4.00;;
18302;SDS011;9277;37.980;23.748;2023-08-17T08:57:29;5.80;;;3.78;;
18302;SDS011;9277;37.980;23.748;2023-08-17T08:59:57;4.38;;;3.17;;
18302;SDS011;9277;37.980;23.748;2023-08-17T09:02:24;7.30;;;3.50;;
18302;SDS011;9277;37.980;23.748;2023-08-17T09:04:51;7.10;;;3.30;;
18302;SDS011;9277;37.980;23.748;2023-08-17T09:07:19;4.88;;;3.17;;
18302;SDS011;9277;37.980;23.748;2023-08-17T09:09:47;4.05;;;3.60;;
18302;SDS011;9277;37.980;23.748;2023-08-17T09:12:14;7.93;;;3.63;;
18302;SDS011;9277;37.980;23.748;2023-08-17T09:14:41;4.78;;;3.65;;
18302;SDS011;9277;37.980;23.748;2023-08-17T09:17:08;4.35;;;3.17;;
18302;SDS011;9277;37.980;23.748;2023-08-17T09:19:35;5.60;;;3.40;;
18302;SDS011;9277;37.980;23.748;2023-08-17T09:22:02;3.65;;;2.90;;
18302;SDS011;9277;37.980;23.748;2023-08-17T09:24:35;4.53;;;3.60;;
18302;SDS011;9277;37.980;23.748;2023-08-17T09:27:02;6.07;;;3.08;;
18302;SDS011;9277;37.980;23.748;2023-08-17T09:29:28;4.93;;;3.60;;
18302;SDS011;9277;37.980;23.748;2023-08-17T09:31:58;4.82;;;3.33;;
18302;SDS011;9277;37.980;23.748;2023-08-17T09:34:25;11.00;;;4.38;;
18302;SDS011;9277;37.980;23.748;2023-08-17T09:36:52;7.68;;;3.30;;
18302;SDS011;9277;37.980;23.748;2023-08-17T09:39:19;10.13;;;3.80;;
18302;SDS011;9277;37.980;23.748;2023-08-17T09:41:47;6.07;;;3.33;;
18302;SDS011;9277;37.980;23.748;2023-08-17T09:44:14;4.50;;;3.25;;
18302;SDS011;9277;37.980;23.748;2023-08-17T09:46:44;6.82;;;3.83;;
18302;SDS011;9277;37.980;23.748;2023-08-17T09:49:11;7.35;;;3.45;;
18302;SDS011;9277;37.980;23.748;2023-08-17T09:51:38;7.25;;;3.50;;
18302;SDS011;9277;37.980;23.748;2023-08-17T09:54:08;5.75;;;3.45;;
18302;SDS011;9277;37.980;23.748;2023-08-17T09:56:34;7.93;;;3.47;;
18302;SDS011;9277;37.980;23.748;2023-08-17T09:59:04;9.02;;;3.58;;
18302;SDS011;9277;37.980;23.748;2023-08-17T10:01:30;6.28;;;3.40;;
18302;SDS011;9277;37.980;23.748;2023-08-17T10:03:57;8.30;;;3.95;;
18302;SDS011;9277;37.980;23.748;2023-08-17T10:06:26;4.43;;;3.15;;
18302;SDS011;9277;37.980;23.748;2023-08-17T10:08:56;8.38;;;3.72;;
18302;SDS011;9277;37.980;23.748;2023-08-17T10:11:23;5.07;;;3.60;;
18302;SDS011;9277;37.980;23.748;2023-08-17T10:13:51;6.90;;;3.92;;
18302;SDS011;9277;37.980;23.748;2023-08-17T10:16:21;6.03;;;3.63;;
18302;SDS011;9277;37.980;23.748;2023-08-17T10:18:50;5.13;;;3.00;;
18302;SDS011;9277;37.980;23.748;2023-08-17T10:21:21;5.03;;;3.75;;
18302;SDS011;9277;37.980;23.748;2023-08-17T10:23:49;5.05;;;3.55;;
18302;SDS011;9277;37.980;23.748;2023-08-17T10:26:16;6.40;;;3.88;;
18302;SDS011;9277;37.980;23.748;2023-08-17T10:28:44;7.18;;;4.00;;
18302;SDS011;9277;37.980;23.748;2023-08-17T10:31:11;5.60;;;3.60;;
18302;SDS011;9277;37.980;23.748;2023-08-17T10:33:40;5.40;;;3.97;;
18302;SDS011;9277;37.980;23.748;2023-08-17T10:36:10;6.85;;;4.63;;
18302;SDS011;9277;37.980;23.748;2023-08-17T10:38:37;6.82;;;4.20;;
18302;SDS011;9277;37.980;23.748;2023-08-17T10:41:07;7.00;;;3.72;;
18302;SDS011;9277;37.980;23.748;2023-08-17T10:43:34;7.93;;;3.80;;
18302;SDS011;9277;37.980;23.748;2023-08-17T10:46:14;4.95;;;3.78;;
18302;SDS011;9277;37.980;23.748;2023-08-17T10:48:44;7.32;;;3.75;;
18302;SDS011;9277;37.980;23.748;2023-08-17T10:51:11;5.68;;;4.00;;
18302;SDS011;9277;37.980;23.748;2023-08-17T10:53:38;8.27;;;3.75;;
18302;SDS011;9277;37.980;23.748;2023-08-17T10:56:08;4.82;;;3.92;;
18302;SDS011;9277;37.980;23.748;2023-08-17T10:58:36;7.28;;;4.60;;
18302;SDS011;9277;37.980;23.748;2023-08-17T11:01:03;13.18;;;3.90;;
18302;SDS011;9277;37.980;23.748;2023-08-17T11:03:30;8.10;;;4.03;;
18302;SDS011;9277;37.980;23.748;2023-08-17T11:06:13;7.20;;;3.88;;
18302;SDS011;9277;37.980;23.748;2023-08-17T11:08:52;6.30;;;3.58;;
18302;SDS011;9277;37.980;23.748;2023-08-17T11:11:20;7.70;;;3.92;;
18302;SDS011;9277;37.980;23.748;2023-08-17T11:13:47;9.35;;;4.60;;
18302;SDS011;9277;37.980;23.748;2023-08-17T11:16:16;7.43;;;4.05;;
18302;SDS011;9277;37.980;23.748;2023-08-17T11:18:44;9.23;;;3.85;;
18302;SDS011;9277;37.980;23.748;2023-08-17T11:21:12;6.95;;;3.65;;
18302;SDS011;9277;37.980;23.748;2023-08-17T11:23:40;5.95;;;3.83;;
18302;SDS011;9277;37.980;23.748;2023-08-17T11:26:07;8.65;;;3.90;;
18302;SDS011;9277;37.980;23.748;2023-08-17T11:28:34;6.60;;;4.18;;
18302;SDS011;9277;37.980;23.748;2023-08-17T11:31:04;6.07;;;3.90;;
18302;SDS011;9277;37.980;23.748;2023-08-17T11:33:31;10.88;;;4.10;;
18302;SDS011;9277;37.980;23.748;2023-08-17T11:35:58;7.72;;;4.00;;
18302;SDS011;9277;37.980;23.748;2023-08-17T11:38:29;4.78;;;3.72;;
18302;SDS011;9277;37.980;23.748;2023-08-17T11:40:57;9.70;;;4.25;;
18302;SDS011;9277;37.980;23.748;2023-08-17T11:43:24;5.90;;;3.85;;
18302;SDS011;9277;37.980;23.748;2023-08-17T11:45:51;7.07;;;4.43;;
18302;SDS011;9277;37.980;23.748;2023-08-17T11:48:18;9.35;;;4.05;;
18302;SDS011;9277;37.980;23.748;2023-08-17T11:50:45;10.73;;;4.28;;
18302;SDS011;9277;37.980;23.748;2023-08-17T11:53:12;6.07;;;4.03;;
18302;SDS011;9277;37.980;23.748;2023-08-17T11:55:40;5.45;;;4.10;;
18302;SDS011;9277;37.980;23.748;2023-08-17T11:58:07;6.55;;;4.00;;
18302;SDS011;9277;37.980;23.748;2023-08-17T12:00:34;6.00;;;4.10;;
18302;SDS011;9277;37.980;23.748;2023-08-17T12:03:01;5.00;;;3.88;;
18302;SDS011;9277;37.980;23.748;2023-08-17T12:05:30;9.38;;;4.32;;
18302;SDS011;9277;37.980;23.748;2023-08-17T12:07:57;7.00;;;4.43;;
18302;SDS011;9277;37.980;23.748;2023-08-17T12:10:27;4.28;;;3.63;;
18302;SDS011;9277;37.980;23.748;2023-08-17T12:12:56;9.38;;;3.97;;
18302;SDS011;9277;37.980;23.748;2023-08-17T12:15:23;5.47;;;4.07;;
18302;SDS011;9277;37.980;23.748;2023-08-17T12:17:51;7.07;;;3.80;;
18302;SDS011;9277;37.980;23.748;2023-08-17T12:20:19;6.10;;;4.38;;
18302;SDS011;9277;37.980;23.748;2023-08-17T12:22:46;4.40;;;3.72;;
18302;SDS011;9277;37.980;23.748;2023-08-17T12:25:13;6.50;;;4.10;;
18302;SDS011;9277;37.980;23.748;2023-08-17T12:27:40;6.85;;;4.28;;
18302;SDS011;9277;37.980;23.748;2023-08-17T12:30:13;7.32;;;3.92;;
18302;SDS011;9277;37.980;23.748;2023-08-17T12:32:40;7.03;;;4.22;;
18302;SDS011;9277;37.980;23.748;2023-08-17T12:35:07;4.95;;;3.92;;
18302;SDS011;9277;37.980;23.748;2023-08-17T12:37:34;9.43;;;4.28;;
18302;SDS011;9277;37.980;23.748;2023-08-17T12:40:01;4.85;;;3.92;;
18302;SDS011;9277;37.980;23.748;2023-08-17T12:42:28;7.57;;;4.30;;
18302;SDS011;9277;37.980;23.748;2023-08-17T12:44:55;8.07;;;3.80;;
18302;SDS011;9277;37.980;23.748;2023-08-17T12:47:24;6.80;;;3.85;;
18302;SDS011;9277;37.980;23.748;2023-08-17T12:49:50;7.78;;;3.83;;
18302;SDS011;9277;37.980;23.748;2023-08-17T12:52:17;4.57;;;3.70;;
18302;SDS011;9277;37.980;23.748;2023-08-17T12:54:44;6.85;;;4.18;;
18302;SDS011;9277;37.980;23.748;2023-08-17T12:57:11;7.60;;;3.70;;
18302;SDS011;9277;37.980;23.748;2023-08-17T12:59:38;6.57;;;3.88;;
18302;SDS011;9277;37.980;23.748;2023-08-17T13:02:05;6.63;;;4.05;;
18302;SDS011;9277;37.980;23.748;2023-08-17T13:04:33;8.52;;;4.15;;
18302;SDS011;9277;37.980;23.748;2023-08-17T13:07:01;4.90;;;4.07;;
18302;SDS011;9277;37.980;23.748;2023-08-17T13:09:28;10.05;;;4.18;;
18302;SDS011;9277;37.980;23.748;2023-08-17T13:11:55;6.38;;;4.32;;
18302;SDS011;9277;37.980;23.748;2023-08-17T13:14:22;4.07;;;3.72;;
18302;SDS011;9277;37.980;23.748;2023-08-17T13:16:49;6.43;;;3.47;;
18302;SDS011;9277;37.980;23.748;2023-08-17T13:19:16;5.13;;;4.05;;
18302;SDS011;9277;37.980;23.748;2023-08-17T13:21:44;5.13;;;3.70;;
18302;SDS011;9277;37.980;23.748;2023-08-17T13:24:11;5.35;;;3.63;;
18302;SDS011;9277;37.980;23.748;2023-08-17T13:26:38;9.95;;;3.65;;
18302;SDS011;9277;37.980;23.748;2023-08-17T13:29:04;4.35;;;3.83;;
18302;SDS011;9277;37.980;23.748;2023-08-17T13:31:31;4.78;;;3.50;;
18302;SDS011;9277;37.980;23.748;2023-08-17T13:33:58;8.60;;;4.63;;
18302;SDS011;9277;37.980;23.748;2023-08-17T13:36:25;7.35;;;3.60;;
18302;SDS011;9277;37.980;23.748;2023-08-17T13:38:53;6.18;;;3.67;;
18302;SDS011;9277;37.980;23.748;2023-08-17T13:41:20;5.22;;;3.70;;
18302;SDS011;9277;37.980;23.748;2023-08-17T13:43:48;4.82;;;4.03;;
18302;SDS011;9277;37.980;23.748;2023-08-17T13:46:15;6.35;;;4.60;;
18302;SDS011;9277;37.980;23.748;2023-08-17T13:48:41;8.50;;;4.38;;
18302;SDS011;9277;37.980;23.748;2023-08-17T13:51:08;6.72;;;4.45;;
18302;SDS011;9277;37.980;23.748;2023-08-17T13:53:36;7.93;;;4.05;;
18302;SDS011;9277;37.980;23.748;2023-08-17T13:56:04;7.32;;;4.45;;
18302;SDS011;9277;37.980;23.748;2023-08-17T13:58:31;5.03;;;3.38;;
18302;SDS011;9277;37.980;23.748;2023-08-17T14:00:58;7.45;;;3.55;;
18302;SDS011;9277;37.980;23.748;2023-08-17T14:03:25;7.05;;;3.70;;
18302;SDS011;9277;37.980;23.748;2023-08-17T14:05:52;5.03;;;4.00;;
18302;SDS011;9277;37.980;23.748;2023-08-17T14:08:18;5.07;;;4.00;;
18302;SDS011;9277;37.980;23.748;2023-08-17T14:10:45;6.55;;;3.72;;
18302;SDS011;9277;37.980;23.748;2023-08-17T14:13:13;6.13;;;3.88;;
18302;SDS011;9277;37.980;23.748;2023-08-17T14:15:40;5.07;;;3.67;;
18302;SDS011;9277;37.980;23.748;2023-08-17T14:18:07;5.63;;;3.63;;
18302;SDS011;9277;37.980;23.748;2023-08-17T14:20:33;7.50;;;3.70;;
18302;SDS011;9277;37.980;23.748;2023-08-17T14:23:00;4.80;;;3.33;;
18302;SDS011;9277;37.980;23.748;2023-08-17T14:25:27;5.03;;;4.00;;
18302;SDS011;9277;37.980;23.748;2023-08-17T14:27:54;7.22;;;3.60;;
18302;SDS011;9277;37.980;23.748;2023-08-17T14:30:22;5.40;;;3.58;;
18302;SDS011;9277;37.980;23.748;2023-08-17T14:32:50;6.75;;;3.53;;
18302;SDS011;9277;37.980;23.748;2023-08-17T14:35:17;4.25;;;3.30;;
18302;SDS011;9277;37.980;23.748;2023-08-17T14:37:44;4.30;;;3.28;;
18302;SDS011;9277;37.980;23.748;2023-08-17T14:40:11;4.88;;;3.50;;
18302;SDS011;9277;37.980;23.748;2023-08-17T14:42:38;6.35;;;3.40;;
18302;SDS011;9277;37.980;23.748;2023-08-17T14:45:05;6.30;;;3.78;;